sensor_id;sensor_type;location;lat;lon;timestamp;temperature;humidity
37658;DHT22;23500;53.268;8.308;2023-09-19T00:00:40;23.30;78.50
37658;DHT22;23500;53.268;8.308;2023-09-19T00:03:07;23.30;78.60
37658;DHT22;23500;53.268;8.308;2023-09-19T00:05:37;23.30;78.00
37658;DHT22;23500;53.268;8.308;2023-09-19T00:08:10;23.30;78.30
37658;DHT22;23500;53.268;8.308;2023-09-19T00:10:35;23.30;78.50
37658;DHT22;23500;53.268;8.308;2023-09-19T00:13:03;23.30;78.10
37658;DHT22;23500;53.268;8.308;2023-09-19T00:15:35;23.30;78.40
37658;DHT22;23500;53.268;8.308;2023-09-19T00:18:01;23.30;78.10
37658;DHT22;23500;53.268;8.308;2023-09-19T00:20:27;23.20;78.00
37658;DHT22;23500;53.268;8.308;2023-09-19T00:22:55;23.20;78.00
37658;DHT22;23500;53.268;8.308;2023-09-19T00:25:21;23.20;78.20
37658;DHT22;23500;53.268;8.308;2023-09-19T00:27:47;23.20;78.00
37658;DHT22;23500;53.268;8.308;2023-09-19T00:30:17;23.20;78.20
37658;DHT22;23500;53.268;8.308;2023-09-19T00:32:47;23.20;78.10
37658;DHT22;23500;53.268;8.308;2023-09-19T00:35:14;23.20;78.10
37658;DHT22;23500;53.268;8.308;2023-09-19T00:37:41;23.20;78.10
37658;DHT22;23500;53.268;8.308;2023-09-19T00:40:08;23.20;77.80
37658;DHT22;23500;53.268;8.308;2023-09-19T00:42:42;23.20;78.10
37658;DHT22;23500;53.268;8.308;2023-09-19T00:45:12;23.20;77.90
37658;DHT22;23500;53.268;8.308;2023-09-19T00:47:43;23.20;78.00
37658;DHT22;23500;53.268;8.308;2023-09-19T00:50:13;23.20;77.80
37658;DHT22;23500;53.268;8.308;2023-09-19T00:52:41;23.20;78.60
37658;DHT22;23500;53.268;8.308;2023-09-19T00:55:11;23.20;78.10
37658;DHT22;23500;53.268;8.308;2023-09-19T00:57:39;23.20;78.00
37658;DHT22;23500;53.268;8.308;2023-09-19T01:00:07;23.20;78.00
37658;DHT22;23500;53.268;8.308;2023-09-19T01:02:34;23.20;77.80
37658;DHT22;23500;53.268;8.308;2023-09-19T01:05:01;23.20;78.00
37658;DHT22;23500;53.268;8.308;2023-09-19T01:07:30;23.20;77.80
37658;DHT22;23500;53.268;8.308;2023-09-19T01:10:03;23.20;77.90
37658;DHT22;23500;53.268;8.308;2023-09-19T01:17:56;23.20;77.90
37658;DHT22;23500;53.268;8.308;2023-09-19T01:26:06;23.10;77.70
37658;DHT22;23500;53.268;8.308;2023-09-19T01:28:45;23.10;77.70
37658;DHT22;23500;53.268;8.308;2023-09-19T01:31:20;23.10;77.80
37658;DHT22;23500;53.268;8.308;2023-09-19T01:33:59;23.10;77.70
37658;DHT22;23500;53.268;8.308;2023-09-19T01:36:34;23.10;77.50
37658;DHT22;23500;53.268;8.308;2023-09-19T01:39:04;23.10;77.50
37658;DHT22;23500;53.268;8.308;2023-09-19T01:44:29;23.10;77.20
37658;DHT22;23500;53.268;8.308;2023-09-19T01:46:58;23.10;77.50
37658;DHT22;23500;53.268;8.308;2023-09-19T01:49:50;23.10;77.20
37658;DHT22;23500;53.268;8.308;2023-09-19T01:52:15;23.10;77.20
37658;DHT22;23500;53.268;8.308;2023-09-19T01:54:52;23.10;77.20
37658;DHT22;23500;53.268;8.308;2023-09-19T01:57:48;23.10;77.20
37658;DHT22;23500;53.268;8.308;2023-09-19T02:00:12;23.10;77.10
37658;DHT22;23500;53.268;8.308;2023-09-19T02:02:40;23.10;77.00
37658;DHT22;23500;53.268;8.308;2023-09-19T02:05:07;23.00;77.00
37658;DHT22;23500;53.268;8.308;2023-09-19T02:07:34;23.00;77.00
37658;DHT22;23500;53.268;8.308;2023-09-19T02:10:01;23.00;76.90
37658;DHT22;23500;53.268;8.308;2023-09-19T02:12:28;23.00;76.90
37658;DHT22;23500;53.268;8.308;2023-09-19T02:14:56;23.00;76.90
37658;DHT22;23500;53.268;8.308;2023-09-19T02:17:23;23.00;77.50
37658;DHT22;23500;53.268;8.308;2023-09-19T02:19:53;23.00;76.80
37658;DHT22;23500;53.268;8.308;2023-09-19T02:22:19;23.00;76.90
37658;DHT22;23500;53.268;8.308;2023-09-19T02:24:44;23.00;76.70
37658;DHT22;23500;53.268;8.308;2023-09-19T02:27:13;23.00;76.80
37658;DHT22;23500;53.268;8.308;2023-09-19T02:29:41;23.00;76.80
37658;DHT22;23500;53.268;8.308;2023-09-19T02:32:07;23.00;76.70
37658;DHT22;23500;53.268;8.308;2023-09-19T02:34:35;23.00;76.70
37658;DHT22;23500;53.268;8.308;2023-09-19T02:37:03;23.00;76.70
37658;DHT22;23500;53.268;8.308;2023-09-19T02:39:31;23.00;76.60
37658;DHT22;23500;53.268;8.308;2023-09-19T02:41:57;23.00;76.60
37658;DHT22;23500;53.268;8.308;2023-09-19T02:44:23;23.00;76.60
37658;DHT22;23500;53.268;8.308;2023-09-19T02:46:49;23.00;76.60
37658;DHT22;23500;53.268;8.308;2023-09-19T02:49:15;23.00;76.60
37658;DHT22;23500;53.268;8.308;2023-09-19T02:51:43;23.00;76.50
37658;DHT22;23500;53.268;8.308;2023-09-19T02:54:09;23.00;76.50
37658;DHT22;23500;53.268;8.308;2023-09-19T02:56:36;23.00;76.50
37658;DHT22;23500;53.268;8.308;2023-09-19T02:59:02;22.90;76.50
37658;DHT22;23500;53.268;8.308;2023-09-19T03:01:28;22.90;76.40
37658;DHT22;23500;53.268;8.308;2023-09-19T03:03:54;22.90;76.50
37658;DHT22;23500;53.268;8.308;2023-09-19T03:06:21;22.90;76.40
37658;DHT22;23500;53.268;8.308;2023-09-19T03:08:47;22.90;76.30
37658;DHT22;23500;53.268;8.308;2023-09-19T03:11:15;22.90;76.40
37658;DHT22;23500;53.268;8.308;2023-09-19T03:13:44;22.90;76.40
37658;DHT22;23500;53.268;8.308;2023-09-19T03:16:11;22.90;76.40
37658;DHT22;23500;53.268;8.308;2023-09-19T03:18:37;22.90;76.40
37658;DHT22;23500;53.268;8.308;2023-09-19T03:21:03;22.90;76.30
37658;DHT22;23500;53.268;8.308;2023-09-19T03:23:28;22.90;76.30
37658;DHT22;23500;53.268;8.308;2023-09-19T03:25:55;22.80;76.30
37658;DHT22;23500;53.268;8.308;2023-09-19T03:28:22;22.80;76.20
37658;DHT22;23500;53.268;8.308;2023-09-19T03:31:02;22.80;77.00
37658;DHT22;23500;53.268;8.308;2023-09-19T03:33:28;22.80;76.20
37658;DHT22;23500;53.268;8.308;2023-09-19T03:35:54;22.80;76.20
37658;DHT22;23500;53.268;8.308;2023-09-19T03:38:20;22.80;76.20
37658;DHT22;23500;53.268;8.308;2023-09-19T03:40:47;22.80;76.20
37658;DHT22;23500;53.268;8.308;2023-09-19T03:43:13;22.80;76.30
37658;DHT22;23500;53.268;8.308;2023-09-19T03:45:39;22.80;76.20
37658;DHT22;23500;53.268;8.308;2023-09-19T03:48:12;22.80;76.90
37658;DHT22;23500;53.268;8.308;2023-09-19T03:50:38;22.80;76.20
37658;DHT22;23500;53.268;8.308;2023-09-19T03:53:04;22.80;76.90
37658;DHT22;23500;53.268;8.308;2023-09-19T03:55:30;22.80;76.20
37658;DHT22;23500;53.268;8.308;2023-09-19T03:57:56;22.80;76.10
37658;DHT22;23500;53.268;8.308;2023-09-19T04:00:22;22.80;76.10
37658;DHT22;23500;53.268;8.308;2023-09-19T04:02:52;22.80;76.10
37658;DHT22;23500;53.268;8.308;2023-09-19T04:05:19;22.80;76.10
37658;DHT22;23500;53.268;8.308;2023-09-19T04:07:44;22.80;76.10
37658;DHT22;23500;53.268;8.308;2023-09-19T04:10:10;22.80;76.10
37658;DHT22;23500;53.268;8.308;2023-09-19T04:12:40;22.70;76.10
37658;DHT22;23500;53.268;8.308;2023-09-19T04:15:06;22.70;76.00
37658;DHT22;23500;53.268;8.308;2023-09-19T04:17:33;22.70;76.00
37658;DHT22;23500;53.268;8.308;2023-09-19T04:19:59;22.70;76.00
37658;DHT22;23500;53.268;8.308;2023-09-19T04:22:25;22.70;75.90
37658;DHT22;23500;53.268;8.308;2023-09-19T04:24:51;22.70;76.10
37658;DHT22;23500;53.268;8.308;2023-09-19T04:27:17;22.70;76.10
37658;DHT22;23500;53.268;8.308;2023-09-19T04:29:44;22.70;76.10
37658;DHT22;23500;53.268;8.308;2023-09-19T04:32:10;22.70;75.60
37658;DHT22;23500;53.268;8.308;2023-09-19T04:34:36;22.70;74.30
37658;DHT22;23500;53.268;8.308;2023-09-19T04:37:04;22.70;73.90
37658;DHT22;23500;53.268;8.308;2023-09-19T04:39:29;22.60;75.10
37658;DHT22;23500;53.268;8.308;2023-09-19T04:41:55;22.70;75.20
37658;DHT22;23500;53.268;8.308;2023-09-19T04:44:22;22.70;75.70
37658;DHT22;23500;53.268;8.308;2023-09-19T04:46:48;22.70;76.10
37658;DHT22;23500;53.268;8.308;2023-09-19T04:49:13;22.70;76.10
37658;DHT22;23500;53.268;8.308;2023-09-19T04:51:40;22.70;76.20
37658;DHT22;23500;53.268;8.308;2023-09-19T04:54:06;22.70;76.20
37658;DHT22;23500;53.268;8.308;2023-09-19T04:56:32;22.70;76.20
37658;DHT22;23500;53.268;8.308;2023-09-19T04:58:58;22.60;74.50
37658;DHT22;23500;53.268;8.308;2023-09-19T05:01:25;22.60;74.10
37658;DHT22;23500;53.268;8.308;2023-09-19T05:03:51;22.60;73.70
37658;DHT22;23500;53.268;8.308;2023-09-19T05:06:20;22.60;73.60
37658;DHT22;23500;53.268;8.308;2023-09-19T05:08:47;22.60;72.90
37658;DHT22;23500;53.268;8.308;2023-09-19T05:11:17;22.60;72.10
37658;DHT22;23500;53.268;8.308;2023-09-19T05:13:43;22.60;71.70
37658;DHT22;23500;53.268;8.308;2023-09-19T05:16:09;22.60;72.40
37658;DHT22;23500;53.268;8.308;2023-09-19T05:18:36;22.60;72.60
37658;DHT22;23500;53.268;8.308;2023-09-19T05:21:04;22.60;71.70
37658;DHT22;23500;53.268;8.308;2023-09-19T05:23:30;22.60;71.20
37658;DHT22;23500;53.268;8.308;2023-09-19T05:25:56;22.60;71.30
37658;DHT22;23500;53.268;8.308;2023-09-19T05:28:25;22.50;71.20
37658;DHT22;23500;53.268;8.308;2023-09-19T05:30:51;22.50;70.60
37658;DHT22;23500;53.268;8.308;2023-09-19T05:33:19;22.50;70.90
37658;DHT22;23500;53.268;8.308;2023-09-19T05:35:45;22.50;69.10
37658;DHT22;23500;53.268;8.308;2023-09-19T05:38:12;22.40;67.80
37658;DHT22;23500;53.268;8.308;2023-09-19T05:40:40;22.40;68.80
37658;DHT22;23500;53.268;8.308;2023-09-19T05:43:11;22.40;70.00
37658;DHT22;23500;53.268;8.308;2023-09-19T05:45:36;22.40;70.40
37658;DHT22;23500;53.268;8.308;2023-09-19T05:48:11;22.40;71.30
37658;DHT22;23500;53.268;8.308;2023-09-19T05:50:40;22.50;71.60
37658;DHT22;23500;53.268;8.308;2023-09-19T05:53:06;22.50;71.70
37658;DHT22;23500;53.268;8.308;2023-09-19T05:55:34;22.50;71.80
37658;DHT22;23500;53.268;8.308;2023-09-19T05:58:00;22.50;72.00
37658;DHT22;23500;53.268;8.308;2023-09-19T06:00:29;22.50;72.00
37658;DHT22;23500;53.268;8.308;2023-09-19T06:02:56;22.50;72.10
37658;DHT22;23500;53.268;8.308;2023-09-19T06:05:23;22.50;72.20
37658;DHT22;23500;53.268;8.308;2023-09-19T06:07:50;22.50;72.40
37658;DHT22;23500;53.268;8.308;2023-09-19T06:10:17;22.50;72.50
37658;DHT22;23500;53.268;8.308;2023-09-19T06:12:43;22.50;72.50
37658;DHT22;23500;53.268;8.308;2023-09-19T06:15:13;22.50;72.60
37658;DHT22;23500;53.268;8.308;2023-09-19T06:17:54;22.50;72.70
37658;DHT22;23500;53.268;8.308;2023-09-19T06:20:25;22.50;72.80
37658;DHT22;23500;53.268;8.308;2023-09-19T06:22:52;22.50;72.80
37658;DHT22;23500;53.268;8.308;2023-09-19T06:25:18;22.50;72.90
37658;DHT22;23500;53.268;8.308;2023-09-19T06:27:52;22.50;73.00
37658;DHT22;23500;53.268;8.308;2023-09-19T06:30:20;22.50;72.90
37658;DHT22;23500;53.268;8.308;2023-09-19T06:32:46;22.50;73.00
37658;DHT22;23500;53.268;8.308;2023-09-19T06:35:13;22.50;73.10
37658;DHT22;23500;53.268;8.308;2023-09-19T06:37:40;22.50;73.10
37658;DHT22;23500;53.268;8.308;2023-09-19T06:40:13;22.50;73.10
37658;DHT22;23500;53.268;8.308;2023-09-19T06:43:00;22.50;73.10
37658;DHT22;23500;53.268;8.308;2023-09-19T06:45:28;22.50;73.10
37658;DHT22;23500;53.268;8.308;2023-09-19T06:47:54;22.50;73.20
37658;DHT22;23500;53.268;8.308;2023-09-19T06:50:23;22.50;73.30
37658;DHT22;23500;53.268;8.308;2023-09-19T06:52:51;22.40;73.20
37658;DHT22;23500;53.268;8.308;2023-09-19T06:55:21;22.40;73.20
37658;DHT22;23500;53.268;8.308;2023-09-19T06:57:50;22.40;73.20
37658;DHT22;23500;53.268;8.308;2023-09-19T07:00:16;22.40;73.20
37658;DHT22;23500;53.268;8.308;2023-09-19T07:03:06;22.40;73.20
37658;DHT22;23500;53.268;8.308;2023-09-19T07:05:34;22.40;73.20
37658;DHT22;23500;53.268;8.308;2023-09-19T07:08:03;22.40;73.30
37658;DHT22;23500;53.268;8.308;2023-09-19T07:10:30;22.40;73.30
37658;DHT22;23500;53.268;8.308;2023-09-19T07:15:22;22.40;73.40
37658;DHT22;23500;53.268;8.308;2023-09-19T07:17:49;22.50;73.50
37658;DHT22;23500;53.268;8.308;2023-09-19T07:20:15;22.50;73.50
37658;DHT22;23500;53.268;8.308;2023-09-19T07:22:41;22.40;73.40
37658;DHT22;23500;53.268;8.308;2023-09-19T07:25:07;22.50;73.40
37658;DHT22;23500;53.268;8.308;2023-09-19T07:27:33;22.50;73.40
37658;DHT22;23500;53.268;8.308;2023-09-19T07:29:59;22.50;73.40
37658;DHT22;23500;53.268;8.308;2023-09-19T07:32:25;22.50;73.30
37658;DHT22;23500;53.268;8.308;2023-09-19T07:34:51;22.50;73.30
37658;DHT22;23500;53.268;8.308;2023-09-19T07:37:16;22.50;73.10
37658;DHT22;23500;53.268;8.308;2023-09-19T07:39:42;22.50;73.10
37658;DHT22;23500;53.268;8.308;2023-09-19T07:42:09;22.50;73.10
37658;DHT22;23500;53.268;8.308;2023-09-19T07:44:36;22.50;73.10
37658;DHT22;23500;53.268;8.308;2023-09-19T07:47:02;22.50;73.00
37658;DHT22;23500;53.268;8.308;2023-09-19T07:49:29;22.50;73.10
37658;DHT22;23500;53.268;8.308;2023-09-19T07:51:54;22.50;73.00
37658;DHT22;23500;53.268;8.308;2023-09-19T07:54:22;22.50;73.00
37658;DHT22;23500;53.268;8.308;2023-09-19T07:56:48;22.50;73.00
37658;DHT22;23500;53.268;8.308;2023-09-19T07:59:13;22.50;72.90
37658;DHT22;23500;53.268;8.308;2023-09-19T08:01:39;22.50;73.60
37658;DHT22;23500;53.268;8.308;2023-09-19T08:04:09;22.50;72.90
37658;DHT22;23500;53.268;8.308;2023-09-19T08:06:35;22.50;72.90
37658;DHT22;23500;53.268;8.308;2023-09-19T08:09:03;22.50;72.90
37658;DHT22;23500;53.268;8.308;2023-09-19T08:11:33;22.50;73.00
37658;DHT22;23500;53.268;8.308;2023-09-19T08:13:58;22.50;73.00
37658;DHT22;23500;53.268;8.308;2023-09-19T08:16:24;22.50;73.40
37658;DHT22;23500;53.268;8.308;2023-09-19T08:18:50;22.50;73.90
37658;DHT22;23500;53.268;8.308;2023-09-19T08:21:22;22.50;73.10
37658;DHT22;23500;53.268;8.308;2023-09-19T08:23:49;22.50;73.40
37658;DHT22;23500;53.268;8.308;2023-09-19T08:26:15;22.50;73.30
37658;DHT22;23500;53.268;8.308;2023-09-19T08:28:40;22.50;73.20
37658;DHT22;23500;53.268;8.308;2023-09-19T08:31:07;22.50;73.30
37658;DHT22;23500;53.268;8.308;2023-09-19T08:33:35;22.50;73.40
37658;DHT22;23500;53.268;8.308;2023-09-19T08:36:02;22.50;73.40
37658;DHT22;23500;53.268;8.308;2023-09-19T08:38:31;22.50;73.40
37658;DHT22;23500;53.268;8.308;2023-09-19T08:40:59;22.50;73.40
37658;DHT22;23500;53.268;8.308;2023-09-19T08:43:26;22.50;73.40
37658;DHT22;23500;53.268;8.308;2023-09-19T08:46:14;22.50;73.40
37658;DHT22;23500;53.268;8.308;2023-09-19T08:49:06;22.50;73.40
37658;DHT22;23500;53.268;8.308;2023-09-19T08:51:42;22.60;73.40
37658;DHT22;23500;53.268;8.308;2023-09-19T08:54:18;22.50;73.40
37658;DHT22;23500;53.268;8.308;2023-09-19T08:56:48;22.50;73.30
37658;DHT22;23500;53.268;8.308;2023-09-19T08:59:15;22.50;73.40
37658;DHT22;23500;53.268;8.308;2023-09-19T09:01:44;22.50;73.40
37658;DHT22;23500;53.268;8.308;2023-09-19T09:04:11;22.50;73.30
37658;DHT22;23500;53.268;8.308;2023-09-19T09:06:39;22.50;73.30
37658;DHT22;23500;53.268;8.308;2023-09-19T09:09:06;22.50;73.30
37658;DHT22;23500;53.268;8.308;2023-09-19T09:11:33;22.50;73.30
37658;DHT22;23500;53.268;8.308;2023-09-19T09:13:59;22.60;73.30
37658;DHT22;23500;53.268;8.308;2023-09-19T09:16:25;22.60;73.30
37658;DHT22;23500;53.268;8.308;2023-09-19T09:18:51;22.60;73.30
37658;DHT22;23500;53.268;8.308;2023-09-19T09:21:25;22.60;73.30
37658;DHT22;23500;53.268;8.308;2023-09-19T09:23:51;22.60;73.30
37658;DHT22;23500;53.268;8.308;2023-09-19T09:26:41;22.60;73.20
37658;DHT22;23500;53.268;8.308;2023-09-19T09:29:10;22.60;73.20
37658;DHT22;23500;53.268;8.308;2023-09-19T09:31:37;22.60;73.20
37658;DHT22;23500;53.268;8.308;2023-09-19T09:34:03;22.50;73.30
37658;DHT22;23500;53.268;8.308;2023-09-19T09:36:37;22.50;73.30
37658;DHT22;23500;53.268;8.308;2023-09-19T09:39:03;22.60;73.20
37658;DHT22;23500;53.268;8.308;2023-09-19T09:41:42;22.60;74.00
37658;DHT22;23500;53.268;8.308;2023-09-19T09:44:16;22.60;73.20
37658;DHT22;23500;53.268;8.308;2023-09-19T09:46:44;22.60;73.20
37658;DHT22;23500;53.268;8.308;2023-09-19T09:49:23;22.60;73.20
37658;DHT22;23500;53.268;8.308;2023-09-19T09:52:07;22.60;73.20
37658;DHT22;23500;53.268;8.308;2023-09-19T09:54:34;22.60;73.20
37658;DHT22;23500;53.268;8.308;2023-09-19T09:57:08;22.60;73.20
37658;DHT22;23500;53.268;8.308;2023-09-19T09:59:54;22.60;73.10
37658;DHT22;23500;53.268;8.308;2023-09-19T10:02:39;22.60;73.10
37658;DHT22;23500;53.268;8.308;2023-09-19T10:05:19;22.60;73.80
37658;DHT22;23500;53.268;8.308;2023-09-19T10:07:46;22.60;73.10
37658;DHT22;23500;53.268;8.308;2023-09-19T10:10:36;22.60;73.10
37658;DHT22;23500;53.268;8.308;2023-09-19T10:13:12;22.60;73.20
37658;DHT22;23500;53.268;8.308;2023-09-19T10:15:39;22.60;73.10
37658;DHT22;23500;53.268;8.308;2023-09-19T10:18:12;22.60;73.10
37658;DHT22;23500;53.268;8.308;2023-09-19T10:20:45;22.60;73.10
37658;DHT22;23500;53.268;8.308;2023-09-19T10:23:12;22.60;73.20
37658;DHT22;23500;53.268;8.308;2023-09-19T10:25:42;22.60;73.10
37658;DHT22;23500;53.268;8.308;2023-09-19T10:28:10;22.60;73.10
37658;DHT22;23500;53.268;8.308;2023-09-19T10:30:46;22.60;73.10
37658;DHT22;23500;53.268;8.308;2023-09-19T10:33:18;22.60;73.00
37658;DHT22;23500;53.268;8.308;2023-09-19T10:35:47;22.60;73.00
37658;DHT22;23500;53.268;8.308;2023-09-19T10:38:17;22.60;73.10
37658;DHT22;23500;53.268;8.308;2023-09-19T10:40:44;22.60;72.90
37658;DHT22;23500;53.268;8.308;2023-09-19T10:43:16;22.60;72.70
37658;DHT22;23500;53.268;8.308;2023-09-19T10:45:48;22.60;72.80
37658;DHT22;23500;53.268;8.308;2023-09-19T10:48:16;22.60;72.80
37658;DHT22;23500;53.268;8.308;2023-09-19T10:53:27;22.60;72.80
37658;DHT22;23500;53.268;8.308;2023-09-19T10:55:57;22.60;72.70
37658;DHT22;23500;53.268;8.308;2023-09-19T10:58:31;22.70;72.80
37658;DHT22;23500;53.268;8.308;2023-09-19T11:01:04;22.70;72.80
37658;DHT22;23500;53.268;8.308;2023-09-19T11:03:40;22.70;72.90
37658;DHT22;23500;53.268;8.308;2023-09-19T11:06:14;22.70;72.60
37658;DHT22;23500;53.268;8.308;2023-09-19T11:30:34;22.70;72.80
37658;DHT22;23500;53.268;8.308;2023-09-19T11:36:16;22.80;73.00
37658;DHT22;23500;53.268;8.308;2023-09-19T11:49:13;22.80;73.00
37658;DHT22;23500;53.268;8.308;2023-09-19T11:51:45;22.80;73.00
37658;DHT22;23500;53.268;8.308;2023-09-19T11:54:14;22.90;73.10
37658;DHT22;23500;53.268;8.308;2023-09-19T11:56:54;22.90;73.00
37658;DHT22;23500;53.268;8.308;2023-09-19T11:59:24;22.90;72.90
37658;DHT22;23500;53.268;8.308;2023-09-19T12:01:55;22.90;72.70
37658;DHT22;23500;53.268;8.308;2023-09-19T12:04:43;22.90;72.90
37658;DHT22;23500;53.268;8.308;2023-09-19T12:07:13;22.90;72.90
37658;DHT22;23500;53.268;8.308;2023-09-19T12:12:20;22.90;72.90
37658;DHT22;23500;53.268;8.308;2023-09-19T12:14:50;23.00;73.10
37658;DHT22;23500;53.268;8.308;2023-09-19T12:17:19;23.00;73.00
37658;DHT22;23500;53.268;8.308;2023-09-19T12:19:56;23.00;73.00
37658;DHT22;23500;53.268;8.308;2023-09-19T12:22:22;23.00;72.90
37658;DHT22;23500;53.268;8.308;2023-09-19T12:24:48;23.00;73.00
37658;DHT22;23500;53.268;8.308;2023-09-19T12:27:16;23.00;72.80
37658;DHT22;23500;53.268;8.308;2023-09-19T12:29:46;23.10;72.70
37658;DHT22;23500;53.268;8.308;2023-09-19T12:32:14;23.10;72.70
37658;DHT22;23500;53.268;8.308;2023-09-19T12:34:49;23.10;72.60
37658;DHT22;23500;53.268;8.308;2023-09-19T12:37:16;23.10;72.50
37658;DHT22;23500;53.268;8.308;2023-09-19T12:39:53;23.10;72.50
37658;DHT22;23500;53.268;8.308;2023-09-19T12:42:26;23.10;72.60
37658;DHT22;23500;53.268;8.308;2023-09-19T12:44:58;23.10;72.50
37658;DHT22;23500;53.268;8.308;2023-09-19T12:47:27;23.10;72.40
37658;DHT22;23500;53.268;8.308;2023-09-19T12:50:14;23.10;72.40
37658;DHT22;23500;53.268;8.308;2023-09-19T12:52:47;23.10;72.60
37658;DHT22;23500;53.268;8.308;2023-09-19T12:55:28;23.20;72.10
37658;DHT22;23500;53.268;8.308;2023-09-19T13:00:41;23.20;72.30
37658;DHT22;23500;53.268;8.308;2023-09-19T13:03:27;23.20;71.00
37658;DHT22;23500;53.268;8.308;2023-09-19T13:05:59;23.20;70.50
37658;DHT22;23500;53.268;8.308;2023-09-19T13:11:16;23.20;71.40
37658;DHT22;23500;53.268;8.308;2023-09-19T13:13:48;23.20;71.20
37658;DHT22;23500;53.268;8.308;2023-09-19T13:16:16;23.20;71.30
37658;DHT22;23500;53.268;8.308;2023-09-19T13:18:52;23.20;71.20
37658;DHT22;23500;53.268;8.308;2023-09-19T13:21:39;23.20;71.30
37658;DHT22;23500;53.268;8.308;2023-09-19T13:24:20;23.20;71.50
37658;DHT22;23500;53.268;8.308;2023-09-19T13:26:46;23.20;71.30
37658;DHT22;23500;53.268;8.308;2023-09-19T13:29:12;23.20;70.40
37658;DHT22;23500;53.268;8.308;2023-09-19T13:31:39;23.20;71.10
37658;DHT22;23500;53.268;8.308;2023-09-19T13:34:07;23.20;71.20
37658;DHT22;23500;53.268;8.308;2023-09-19T13:36:33;23.20;71.10
37658;DHT22;23500;53.268;8.308;2023-09-19T13:38:59;23.20;71.10
37658;DHT22;23500;53.268;8.308;2023-09-19T13:41:25;23.20;71.20
37658;DHT22;23500;53.268;8.308;2023-09-19T13:43:51;23.20;71.00
37658;DHT22;23500;53.268;8.308;2023-09-19T13:46:18;23.20;71.00
37658;DHT22;23500;53.268;8.308;2023-09-19T13:48:51;23.20;71.00
37658;DHT22;23500;53.268;8.308;2023-09-19T13:51:20;23.20;70.90
37658;DHT22;23500;53.268;8.308;2023-09-19T13:53:48;23.20;70.30
37658;DHT22;23500;53.268;8.308;2023-09-19T13:56:16;23.10;70.30
37658;DHT22;23500;53.268;8.308;2023-09-19T13:58:41;23.20;70.90
37658;DHT22;23500;53.268;8.308;2023-09-19T14:01:08;23.20;70.80
37658;DHT22;23500;53.268;8.308;2023-09-19T14:03:41;23.20;70.90
37658;DHT22;23500;53.268;8.308;2023-09-19T14:06:21;23.20;70.90
37658;DHT22;23500;53.268;8.308;2023-09-19T14:08:47;23.10;70.90
37658;DHT22;23500;53.268;8.308;2023-09-19T14:11:13;23.10;70.80
37658;DHT22;23500;53.268;8.308;2023-09-19T14:13:39;23.10;70.80
37658;DHT22;23500;53.268;8.308;2023-09-19T14:16:06;23.10;70.60
37658;DHT22;23500;53.268;8.308;2023-09-19T14:18:34;23.10;70.70
37658;DHT22;23500;53.268;8.308;2023-09-19T14:21:07;23.10;70.80
37658;DHT22;23500;53.268;8.308;2023-09-19T14:23:37;23.10;70.80
37658;DHT22;23500;53.268;8.308;2023-09-19T14:26:04;23.10;70.90
37658;DHT22;23500;53.268;8.308;2023-09-19T14:28:31;23.10;71.00
37658;DHT22;23500;53.268;8.308;2023-09-19T14:31:07;23.00;70.80
37658;DHT22;23500;53.268;8.308;2023-09-19T14:33:33;23.00;70.70
37658;DHT22;23500;53.268;8.308;2023-09-19T14:51:31;22.90;69.70
37658;DHT22;23500;53.268;8.308;2023-09-19T14:53:57;22.90;69.70
37658;DHT22;23500;53.268;8.308;2023-09-19T14:56:23;22.90;69.80
37658;DHT22;23500;53.268;8.308;2023-09-19T14:58:51;22.90;70.00
37658;DHT22;23500;53.268;8.308;2023-09-19T15:01:17;22.90;69.60
37658;DHT22;23500;53.268;8.308;2023-09-19T15:03:43;22.90;69.90
37658;DHT22;23500;53.268;8.308;2023-09-19T15:06:10;22.90;70.10
37658;DHT22;23500;53.268;8.308;2023-09-19T15:08:44;22.80;70.10
37658;DHT22;23500;53.268;8.308;2023-09-19T15:11:16;22.90;70.10
37658;DHT22;23500;53.268;8.308;2023-09-19T15:13:43;22.90;70.20
37658;DHT22;23500;53.268;8.308;2023-09-19T15:16:10;22.90;70.30
37658;DHT22;23500;53.268;8.308;2023-09-19T15:18:38;22.90;70.40
37658;DHT22;23500;53.268;8.308;2023-09-19T15:21:05;22.90;70.50
37658;DHT22;23500;53.268;8.308;2023-09-19T15:23:31;22.90;70.60
37658;DHT22;23500;53.268;8.308;2023-09-19T15:26:02;22.90;70.70
37658;DHT22;23500;53.268;8.308;2023-09-19T15:28:28;22.90;70.80
37658;DHT22;23500;53.268;8.308;2023-09-19T15:31:11;22.90;70.60
37658;DHT22;23500;53.268;8.308;2023-09-19T15:33:38;22.90;71.10
37658;DHT22;23500;53.268;8.308;2023-09-19T15:36:05;22.90;71.40
37658;DHT22;23500;53.268;8.308;2023-09-19T15:38:54;23.00;71.70
37658;DHT22;23500;53.268;8.308;2023-09-19T15:41:19;23.00;72.20
37658;DHT22;23500;53.268;8.308;2023-09-19T15:43:49;23.00;71.50
37658;DHT22;23500;53.268;8.308;2023-09-19T15:46:15;23.00;72.70
37658;DHT22;23500;53.268;8.308;2023-09-19T15:48:41;23.00;73.60
37658;DHT22;23500;53.268;8.308;2023-09-19T15:51:08;23.00;73.30
37658;DHT22;23500;53.268;8.308;2023-09-19T15:53:50;23.00;73.80
37658;DHT22;23500;53.268;8.308;2023-09-19T15:56:17;23.00;73.60
37658;DHT22;23500;53.268;8.308;2023-09-19T15:58:44;23.00;73.90
37658;DHT22;23500;53.268;8.308;2023-09-19T16:01:11;23.00;74.10
37658;DHT22;23500;53.268;8.308;2023-09-19T16:03:38;23.10;73.80
37658;DHT22;23500;53.268;8.308;2023-09-19T16:06:11;23.10;74.70
37658;DHT22;23500;53.268;8.308;2023-09-19T16:08:42;23.10;74.10
37658;DHT22;23500;53.268;8.308;2023-09-19T16:11:08;23.10;74.10
37658;DHT22;23500;53.268;8.308;2023-09-19T16:13:35;23.10;74.30
37658;DHT22;23500;53.268;8.308;2023-09-19T16:16:01;23.10;74.50
37658;DHT22;23500;53.268;8.308;2023-09-19T16:18:27;23.10;74.80
37658;DHT22;23500;53.268;8.308;2023-09-19T16:20:53;23.10;75.40
37658;DHT22;23500;53.268;8.308;2023-09-19T16:23:18;23.10;75.20
37658;DHT22;23500;53.268;8.308;2023-09-19T16:25:46;23.10;75.60
37658;DHT22;23500;53.268;8.308;2023-09-19T16:28:12;23.20;75.90
37658;DHT22;23500;53.268;8.308;2023-09-19T16:30:38;23.20;76.20
37658;DHT22;23500;53.268;8.308;2023-09-19T16:33:05;23.10;76.30
37658;DHT22;23500;53.268;8.308;2023-09-19T16:35:31;23.20;76.20
37658;DHT22;23500;53.268;8.308;2023-09-19T16:38:01;23.20;76.50
37658;DHT22;23500;53.268;8.308;2023-09-19T16:40:27;23.20;76.70
37658;DHT22;23500;53.268;8.308;2023-09-19T16:42:54;23.20;76.70
37658;DHT22;23500;53.268;8.308;2023-09-19T16:45:19;23.20;77.10
37658;DHT22;23500;53.268;8.308;2023-09-19T16:47:45;23.20;77.20
37658;DHT22;23500;53.268;8.308;2023-09-19T16:50:11;23.20;77.20
37658;DHT22;23500;53.268;8.308;2023-09-19T16:52:37;23.20;77.50
37658;DHT22;23500;53.268;8.308;2023-09-19T16:55:05;23.30;77.70
37658;DHT22;23500;53.268;8.308;2023-09-19T16:57:31;23.30;78.00
37658;DHT22;23500;53.268;8.308;2023-09-19T16:59:57;23.30;77.90